createdAt,value
2018-02-04T00:02:00.520Z,0.10
2018-02-04T00:04:27.969Z,0.10
2018-02-04T00:06:55.399Z,0.00
2018-02-04T00:09:23.729Z,-0.10
2018-02-04T00:11:51.296Z,-0.20
2018-02-04T00:14:18.862Z,-0.20
2018-02-04T00:16:46.309Z,-0.20
2018-02-04T00:19:13.770Z,-0.20
2018-02-04T00:21:41.197Z,-0.20
2018-02-04T00:24:08.634Z,-0.20
2018-02-04T00:26:36.151Z,-0.20
2018-02-04T00:29:03.576Z,-0.20
2018-02-04T00:31:31.026Z,-0.20
2018-02-04T00:33:58.465Z,-0.20
2018-02-04T00:36:26.065Z,-0.20
2018-02-04T00:38:53.594Z,-0.20
2018-02-04T00:41:21.209Z,-0.30
2018-02-04T00:43:48.638Z,-0.30
2018-02-04T00:46:16.180Z,-0.30
2018-02-04T00:48:43.633Z,-0.30
2018-02-04T00:51:11.094Z,-0.30
2018-02-04T00:53:38.526Z,-0.30
2018-02-04T00:56:06.125Z,-0.30
2018-02-04T00:58:33.577Z,-0.40
2018-02-04T01:01:01.118Z,-0.40
2018-02-04T01:03:28.621Z,-0.50
2018-02-04T01:05:56.074Z,-0.50
2018-02-04T01:08:23.614Z,-0.40
2018-02-04T01:10:51.148Z,-0.50
2018-02-04T01:13:18.612Z,-0.50
2018-02-04T01:15:46.062Z,-0.40
2018-02-04T01:18:13.493Z,-0.50
2018-02-04T01:20:40.950Z,-0.50
2018-02-04T01:23:08.454Z,-0.40
2018-02-04T01:25:35.918Z,-0.40
2018-02-04T01:28:03.373Z,-0.40
2018-02-04T01:30:30.826Z,-0.40
2018-02-04T01:32:58.389Z,-0.40
2018-02-04T01:35:25.830Z,-0.50
2018-02-04T01:37:53.286Z,-0.40
2018-02-04T01:40:20.729Z,-0.40
2018-02-04T01:42:48.166Z,-0.50
2018-02-04T01:45:15.772Z,-0.40
2018-02-04T01:47:43.209Z,-0.40
2018-02-04T01:50:10.658Z,-0.40
2018-02-04T01:52:38.129Z,-0.40
2018-02-04T01:55:05.580Z,-0.40
2018-02-04T01:57:33.018Z,-0.40
2018-02-04T02:00:00.451Z,-0.50
2018-02-04T02:02:27.977Z,-0.40
2018-02-04T02:04:55.425Z,-0.40
2018-02-04T02:07:22.966Z,-0.40
2018-02-04T02:09:50.401Z,-0.40
2018-02-04T02:12:17.837Z,-0.40
2018-02-04T02:14:45.270Z,-0.40
2018-02-04T02:17:13.478Z,-0.30
2018-02-04T02:19:40.930Z,-0.40
2018-02-04T02:22:09.134Z,-0.20
2018-02-04T02:24:36.561Z,-0.20
2018-02-04T02:27:03.997Z,-0.30
2018-02-04T02:29:33.173Z,-0.20
2018-02-04T02:32:00.625Z,-0.30
2018-02-04T02:34:28.184Z,-0.30
2018-02-04T02:36:55.743Z,-0.30
2018-02-04T02:39:23.282Z,-0.20
2018-02-04T02:41:50.725Z,-0.20
2018-02-04T02:44:18.193Z,-0.10
2018-02-04T02:46:45.629Z,-0.10
2018-02-04T02:49:13.112Z,-0.10
2018-02-04T02:51:40.545Z,-0.10
2018-02-04T02:54:07.981Z,-0.20
2018-02-04T02:56:35.461Z,-0.10
2018-02-04T02:59:02.917Z,-0.10
2018-02-04T03:01:30.394Z,-0.10
2018-02-04T03:03:57.945Z,-0.10
2018-02-04T03:06:25.377Z,-0.10
2018-02-04T03:08:52.854Z,-0.10
2018-02-04T03:11:20.315Z,-0.10
2018-02-04T03:13:47.760Z,-0.10
2018-02-04T03:16:15.202Z,-0.10
2018-02-04T03:18:42.693Z,0.00
2018-02-04T03:21:10.143Z,0.00
2018-02-04T03:23:37.776Z,0.10
2018-02-04T03:26:05.197Z,0.10
2018-02-04T03:28:33.393Z,0.20
2018-02-04T03:31:00.877Z,0.20
2018-02-04T03:33:28.306Z,0.30
2018-02-04T03:35:55.737Z,0.40
2018-02-04T03:38:23.182Z,0.50
2018-02-04T03:40:51.417Z,0.40
2018-02-04T03:43:18.878Z,0.40
2018-02-04T03:45:46.437Z,0.40
2018-02-04T03:48:13.897Z,0.30
2018-02-04T03:50:41.433Z,0.30
2018-02-04T03:53:08.894Z,0.30
2018-02-04T03:55:36.361Z,0.40
2018-02-04T03:58:03.817Z,0.60
2018-02-04T04:00:31.253Z,0.80
2018-02-04T04:02:58.680Z,0.90
2018-02-04T04:05:26.938Z,1.00
2018-02-04T04:07:54.361Z,1.00
2018-02-04T04:10:21.798Z,1.10
2018-02-04T04:12:49.278Z,1.20
2018-02-04T04:15:16.702Z,1.20
2018-02-04T04:17:44.141Z,1.20
2018-02-04T04:20:12.361Z,0.90
2018-02-04T04:22:39.812Z,0.90
2018-02-04T04:25:07.245Z,0.80
2018-02-04T04:27:34.741Z,0.90
2018-02-04T04:30:02.179Z,0.90
2018-02-04T04:32:29.623Z,1.10
2018-02-04T04:34:57.183Z,0.90
2018-02-04T04:37:24.621Z,1.10
2018-02-04T04:39:52.121Z,1.20
2018-02-04T04:42:19.565Z,1.00
2018-02-04T04:44:47.059Z,1.00
2018-02-04T04:47:14.485Z,1.10
2018-02-04T04:49:41.919Z,0.90
2018-02-04T04:52:09.353Z,0.70
2018-02-04T04:54:36.785Z,0.80
2018-02-04T04:57:05.034Z,0.80
2018-02-04T04:59:32.462Z,0.70
2018-02-04T05:01:59.940Z,0.70
2018-02-04T05:04:27.381Z,0.70
2018-02-04T05:06:54.826Z,0.80
2018-02-04T05:09:22.270Z,0.90
2018-02-04T05:11:49.729Z,0.90
2018-02-04T05:14:17.162Z,0.80
2018-02-04T05:16:45.363Z,0.70
2018-02-04T05:19:12.857Z,0.70
2018-02-04T05:21:40.397Z,0.70
2018-02-04T05:24:07.839Z,0.80
2018-02-04T05:26:35.281Z,1.00
2018-02-04T05:29:02.717Z,1.20
2018-02-04T05:31:30.145Z,1.20
2018-02-04T05:33:57.573Z,1.20
2018-02-04T05:36:25.002Z,1.30
2018-02-04T05:38:52.441Z,1.20
2018-02-04T05:41:20.667Z,1.10
2018-02-04T05:43:48.126Z,1.10
2018-02-04T05:46:15.562Z,1.10
2018-02-04T05:48:42.989Z,1.20
2018-02-04T05:51:11.192Z,1.20
2018-02-04T05:53:38.621Z,1.10
2018-02-04T05:56:06.066Z,1.20
2018-02-04T05:58:34.297Z,1.10
2018-02-04T06:01:01.754Z,1.00
2018-02-04T06:03:29.209Z,1.10
2018-02-04T06:05:56.637Z,1.10
2018-02-04T06:08:24.121Z,1.00
2018-02-04T06:10:51.552Z,0.80
2018-02-04T06:13:19.048Z,0.80
2018-02-04T06:15:46.470Z,0.90
2018-02-04T06:18:13.906Z,1.00
2018-02-04T06:20:41.345Z,0.90
2018-02-04T06:23:10.429Z,0.90
2018-02-04T06:25:38.622Z,0.90
2018-02-04T06:28:06.826Z,0.90
2018-02-04T06:30:34.311Z,0.80
2018-02-04T06:33:01.733Z,0.80
2018-02-04T06:35:29.166Z,0.70
2018-02-04T06:37:57.369Z,0.60
2018-02-04T06:40:24.805Z,0.50
2018-02-04T06:42:52.300Z,0.60
2018-02-04T06:45:19.753Z,0.70
2018-02-04T06:47:47.211Z,0.70
2018-02-04T06:50:14.653Z,0.70
2018-02-04T06:52:42.109Z,0.60
2018-02-04T06:55:09.566Z,0.60
2018-02-04T06:57:37.045Z,0.60
2018-02-04T07:00:04.498Z,0.60
2018-02-04T07:02:31.936Z,0.60
2018-02-04T07:04:59.410Z,0.60
2018-02-04T07:07:26.836Z,0.50
2018-02-04T07:09:54.333Z,0.50
2018-02-04T07:12:21.756Z,0.40
2018-02-04T07:14:49.207Z,0.40
2018-02-04T07:17:16.629Z,0.40
2018-02-04T07:19:44.861Z,0.40
2018-02-04T07:22:12.289Z,0.30
2018-02-04T07:24:39.731Z,0.40
2018-02-04T07:27:07.912Z,0.50
2018-02-04T07:29:35.357Z,0.50
2018-02-04T07:32:02.852Z,0.60
2018-02-04T07:34:30.530Z,0.70
2018-02-04T07:36:57.997Z,0.70
2018-02-04T07:39:25.501Z,0.70
2018-02-04T07:41:53.028Z,0.80
2018-02-04T07:44:20.558Z,0.60
2018-02-04T07:46:47.995Z,0.60
2018-02-04T07:49:15.533Z,0.70
2018-02-04T07:51:43.030Z,0.60
2018-02-04T07:54:10.462Z,0.60
2018-02-04T07:56:37.977Z,0.40
2018-02-04T07:59:06.181Z,0.60
2018-02-04T08:01:33.796Z,0.60
2018-02-04T08:04:01.219Z,0.70
2018-02-04T08:06:28.664Z,0.80
2018-02-04T08:08:56.089Z,0.90
2018-02-04T08:11:24.297Z,1.20
2018-02-04T08:13:51.770Z,1.10
2018-02-04T08:16:19.306Z,1.30
2018-02-04T08:18:46.782Z,1.30
2018-02-04T08:21:14.237Z,1.40
2018-02-04T08:23:41.762Z,1.50
2018-02-04T08:26:09.269Z,1.40
2018-02-04T08:28:36.682Z,1.50
2018-02-04T08:31:04.110Z,1.40
2018-02-04T08:33:32.314Z,1.30
2018-02-04T08:35:59.746Z,1.30
2018-02-04T08:38:27.934Z,1.30
2018-02-04T08:40:55.429Z,1.20
2018-02-04T08:43:22.853Z,1.30
2018-02-04T08:45:50.306Z,1.40
2018-02-04T08:48:17.721Z,1.50
2018-02-04T08:50:45.277Z,1.50
2018-02-04T08:53:12.700Z,1.70
2018-02-04T08:55:40.133Z,1.70
2018-02-04T08:58:07.557Z,1.70
2018-02-04T09:00:34.983Z,1.80
2018-02-04T09:03:02.417Z,1.90
2018-02-04T09:05:29.853Z,1.80
2018-02-04T09:07:57.289Z,1.80
2018-02-04T09:10:25.485Z,2.20
2018-02-04T09:12:52.988Z,2.10
2018-02-04T09:15:20.415Z,2.20
2018-02-04T09:17:47.893Z,2.20
2018-02-04T09:20:15.344Z,2.20
2018-02-04T09:22:42.784Z,2.30
2018-02-04T09:25:10.201Z,2.40
2018-02-04T09:27:38.405Z,2.50
2018-02-04T09:30:05.826Z,2.40
2018-02-04T09:32:34.018Z,2.60
2018-02-04T09:35:01.447Z,2.60
2018-02-04T09:37:28.885Z,2.70
2018-02-04T09:39:56.318Z,2.60
2018-02-04T09:42:23.753Z,2.50
2018-02-04T09:44:51.238Z,2.40
2018-02-04T09:47:18.689Z,2.20
2018-02-04T09:49:46.122Z,2.10
2018-02-04T09:52:13.572Z,2.10
2018-02-04T09:54:41.068Z,2.20
2018-02-04T09:57:08.525Z,2.30
2018-02-04T09:59:35.973Z,2.20
2018-02-04T10:02:03.409Z,2.00
2018-02-04T10:04:30.882Z,2.00
2018-02-04T10:06:58.328Z,2.10
2018-02-04T10:09:25.769Z,2.30
2018-02-04T10:11:53.203Z,2.30
2018-02-04T10:14:21.439Z,2.10
2018-02-04T10:16:48.878Z,2.00
2018-02-04T10:19:16.309Z,1.80
2018-02-04T10:21:43.745Z,1.70
2018-02-04T10:24:11.262Z,1.70
2018-02-04T10:26:38.724Z,1.60
2018-02-04T10:29:06.237Z,1.60
2018-02-04T10:31:33.699Z,1.60
2018-02-04T10:34:01.196Z,1.60
2018-02-04T10:36:28.615Z,1.40
2018-02-04T10:38:56.090Z,1.30
2018-02-04T10:41:23.575Z,1.30
2018-02-04T10:43:51.209Z,1.20
2018-02-04T10:46:18.638Z,1.20
2018-02-04T10:48:46.142Z,1.20
2018-02-04T10:51:19.420Z,1.30
2018-02-04T10:53:46.899Z,1.40
2018-02-04T10:56:14.339Z,1.30
2018-02-04T10:58:41.898Z,1.40
2018-02-04T11:01:09.330Z,1.50
2018-02-04T11:03:36.901Z,1.50
2018-02-04T11:06:04.385Z,1.50
2018-02-04T11:08:31.817Z,1.50
2018-02-04T11:10:59.250Z,1.60
2018-02-04T11:13:26.688Z,1.70
2018-02-04T11:15:54.193Z,1.90
2018-02-04T11:18:21.760Z,1.90
2018-02-04T11:20:49.899Z,1.80
2018-02-04T11:23:17.318Z,1.80
2018-02-04T11:25:45.509Z,1.90
2018-02-04T11:28:13.006Z,1.90
2018-02-04T11:30:40.440Z,2.20
2018-02-04T11:33:07.869Z,2.20
2018-02-04T11:35:36.082Z,2.20
2018-02-04T11:38:03.554Z,2.10
2018-02-04T11:40:31.006Z,2.10
2018-02-04T11:42:58.437Z,2.00
2018-02-04T11:45:25.865Z,2.00
2018-02-04T11:47:54.093Z,2.10
2018-02-04T11:50:21.526Z,2.00
2018-02-04T11:52:48.957Z,2.10
2018-02-04T11:55:17.253Z,2.30
2018-02-04T11:57:44.822Z,2.30
2018-02-04T12:00:12.233Z,2.40
2018-02-04T12:02:40.465Z,2.40
2018-02-04T12:05:07.918Z,2.40
2018-02-04T12:07:35.476Z,2.40
2018-02-04T12:10:02.940Z,2.40
2018-02-04T12:12:30.456Z,2.50
2018-02-04T12:14:57.953Z,2.50
2018-02-04T12:17:25.409Z,2.60
2018-02-04T12:19:52.877Z,2.70
2018-02-04T12:22:20.318Z,2.70
2018-02-04T12:24:47.749Z,2.90
2018-02-04T12:27:15.229Z,2.90
2018-02-04T12:29:42.711Z,2.90
2018-02-04T12:32:10.101Z,3.00
2018-02-04T12:34:37.607Z,3.00
2018-02-04T12:37:05.066Z,3.00
2018-02-04T12:39:32.509Z,3.10
2018-02-04T12:41:59.976Z,3.20
2018-02-04T12:44:27.430Z,3.20
2018-02-04T12:46:54.889Z,3.10
2018-02-04T12:49:22.328Z,3.10
2018-02-04T12:51:49.778Z,3.10
2018-02-04T12:54:17.190Z,3.10
2018-02-04T12:56:44.705Z,3.10
2018-02-04T12:59:12.128Z,3.20
2018-02-04T13:01:39.582Z,3.30
2018-02-04T13:04:07.811Z,3.20
2018-02-04T13:06:35.340Z,3.10
2018-02-04T13:09:02.757Z,3.20
2018-02-04T13:11:31.081Z,3.00
2018-02-04T13:13:58.513Z,3.00
2018-02-04T13:16:25.966Z,3.00
2018-02-04T13:18:53.394Z,3.00
2018-02-04T13:21:20.818Z,3.10
2018-02-04T13:23:49.238Z,3.00
2018-02-04T13:26:17.435Z,3.00
2018-02-04T13:28:45.035Z,3.00
2018-02-04T13:31:12.610Z,3.00
2018-02-04T13:33:40.154Z,2.90
2018-02-04T13:36:07.710Z,2.80
2018-02-04T13:38:35.169Z,2.80
2018-02-04T13:41:02.626Z,2.80
2018-02-04T13:43:30.141Z,2.80
2018-02-04T13:45:58.322Z,2.90
2018-02-04T13:48:25.761Z,2.80
2018-02-04T13:50:54.127Z,3.00
2018-02-04T13:53:21.569Z,3.00
2018-02-04T13:55:49.014Z,3.00
2018-02-04T13:58:16.446Z,3.00
2018-02-04T14:00:43.917Z,3.00
2018-02-04T14:03:11.345Z,3.00
2018-02-04T14:05:38.773Z,2.90
2018-02-04T14:08:07.136Z,2.90
2018-02-04T14:10:34.562Z,2.80
2018-02-04T14:13:02.030Z,2.90
2018-02-04T14:15:29.457Z,3.00
2018-02-04T14:17:56.951Z,2.90
2018-02-04T14:20:24.587Z,2.80
2018-02-04T14:22:51.997Z,2.90
2018-02-04T14:25:20.210Z,2.90
2018-02-04T14:27:47.679Z,2.80
2018-02-04T14:30:15.140Z,2.90
2018-02-04T14:32:42.575Z,3.00
2018-02-04T14:35:10.044Z,2.80
2018-02-04T14:37:37.469Z,2.80
2018-02-04T14:40:04.913Z,2.80
2018-02-04T14:42:33.111Z,2.70
2018-02-04T14:45:00.585Z,2.60
2018-02-04T14:47:28.018Z,1.30
2018-02-04T14:49:55.615Z,2.60
2018-02-04T14:52:23.034Z,2.60
2018-02-04T14:54:50.495Z,2.60
2018-02-04T14:57:18.662Z,2.50
2018-02-04T14:59:46.230Z,2.50
2018-02-04T15:02:13.665Z,2.50
2018-02-04T15:04:41.108Z,2.50
2018-02-04T15:07:09.346Z,2.40
2018-02-04T15:09:36.773Z,2.40
2018-02-04T15:12:04.200Z,2.50
2018-02-04T15:14:31.830Z,2.50
2018-02-04T15:16:59.241Z,2.50
2018-02-04T15:19:26.694Z,2.50
2018-02-04T15:21:54.117Z,2.50
2018-02-04T15:24:22.363Z,2.60
2018-02-04T15:26:50.010Z,2.50
2018-02-04T15:29:17.457Z,2.60
2018-02-04T15:31:44.905Z,2.60
2018-02-04T15:34:12.393Z,2.70
2018-02-04T15:36:39.901Z,2.60
2018-02-04T15:39:07.340Z,2.60
2018-02-04T15:41:35.538Z,2.70
2018-02-04T15:44:02.961Z,2.60
2018-02-04T15:46:31.168Z,2.70
2018-02-04T15:48:58.608Z,2.60
2018-02-04T15:51:26.044Z,2.70
2018-02-04T15:53:53.670Z,2.70
2018-02-04T15:56:21.125Z,2.60
2018-02-04T15:58:48.582Z,2.60
2018-02-04T16:01:16.022Z,2.60
2018-02-04T16:03:43.490Z,2.60
2018-02-04T16:06:11.050Z,2.70
2018-02-04T16:08:38.480Z,2.70
2018-02-04T16:11:05.918Z,2.70
2018-02-04T16:13:34.118Z,2.60
2018-02-04T16:16:01.546Z,2.60
2018-02-04T16:18:28.975Z,2.60
2018-02-04T16:20:56.592Z,2.60
2018-02-04T16:23:24.169Z,2.60
2018-02-04T16:25:51.609Z,2.60
2018-02-04T16:28:19.044Z,2.60
2018-02-04T16:30:46.533Z,2.60
2018-02-04T16:33:13.983Z,2.50
2018-02-04T16:35:42.481Z,2.60
2018-02-04T16:38:09.921Z,2.60
2018-02-04T16:40:37.393Z,2.60
2018-02-04T16:43:04.842Z,2.50
2018-02-04T16:45:32.308Z,2.60
2018-02-04T16:47:59.738Z,2.60
2018-02-04T16:50:27.602Z,2.70
2018-02-04T16:52:55.365Z,2.70
2018-02-04T16:55:22.785Z,2.70
2018-02-04T16:57:51.009Z,2.70
2018-02-04T17:00:18.461Z,2.70
2018-02-04T17:02:45.906Z,2.60
2018-02-04T17:05:13.337Z,2.60
2018-02-04T17:07:40.837Z,2.60
2018-02-04T17:10:08.274Z,2.70
2018-02-04T17:12:35.721Z,2.60
2018-02-04T17:15:03.205Z,2.50
2018-02-04T17:17:30.642Z,2.60
2018-02-04T17:19:58.121Z,2.60
2018-02-04T17:22:25.558Z,2.50
2018-02-04T17:24:53.028Z,2.50
2018-02-04T17:27:20.503Z,2.60
2018-02-04T17:29:48.053Z,2.60
2018-02-04T17:32:15.494Z,2.50
2018-02-04T17:34:42.932Z,2.40
2018-02-04T17:37:10.370Z,2.40
2018-02-04T17:39:37.811Z,2.30
2018-02-04T17:42:06.051Z,2.30
2018-02-04T17:44:33.686Z,2.30
2018-02-04T17:47:01.134Z,2.30
2018-02-04T17:49:28.569Z,2.20
2018-02-04T17:51:56.799Z,2.30
2018-02-04T17:54:24.258Z,2.20
2018-02-04T17:56:51.713Z,2.30
2018-02-04T17:59:19.153Z,2.30
2018-02-04T18:01:46.614Z,2.40
2018-02-04T18:04:14.057Z,2.40
2018-02-04T18:06:41.506Z,2.30
2018-02-04T18:09:08.941Z,2.40
2018-02-04T18:11:37.171Z,2.50
2018-02-04T18:14:04.636Z,2.40
2018-02-04T18:16:32.090Z,2.40
2018-02-04T18:18:59.541Z,2.40
2018-02-04T18:21:27.905Z,2.50
2018-02-04T18:23:55.485Z,2.50
2018-02-04T18:26:22.918Z,2.60
2018-02-04T18:28:50.356Z,2.60
2018-02-04T18:31:17.802Z,2.60
2018-02-04T18:33:45.318Z,2.60
2018-02-04T18:36:12.759Z,2.60
2018-02-04T18:38:40.217Z,2.60
2018-02-04T18:41:07.746Z,2.60
2018-02-04T18:43:35.149Z,2.60
2018-02-04T18:46:03.351Z,2.60
2018-02-04T18:48:30.849Z,2.50
2018-02-04T18:50:58.299Z,2.60
2018-02-04T18:53:25.854Z,2.60
2018-02-04T18:55:53.269Z,2.60
2018-02-04T18:58:21.492Z,2.50
2018-02-04T19:00:49.458Z,2.40
2018-02-04T19:03:16.909Z,2.50
2018-02-04T19:05:44.384Z,2.60
2018-02-04T19:08:11.827Z,2.60
2018-02-04T19:10:39.287Z,2.60
2018-02-04T19:13:06.731Z,2.50
2018-02-04T19:15:34.160Z,2.50
2018-02-04T19:18:01.660Z,2.60
2018-02-04T19:20:29.086Z,2.60
2018-02-04T19:22:56.562Z,2.60
2018-02-04T19:25:23.997Z,2.60
2018-02-04T19:27:51.487Z,2.60
2018-02-04T19:30:18.914Z,2.60
2018-02-04T19:32:46.338Z,2.60
2018-02-04T19:35:14.659Z,2.60
2018-02-04T19:37:42.082Z,2.60
2018-02-04T19:40:09.606Z,2.70
2018-02-04T19:42:37.009Z,2.70
2018-02-04T19:45:04.494Z,2.70
2018-02-04T19:47:31.962Z,2.70
2018-02-04T19:49:59.402Z,2.60
2018-02-04T19:52:26.842Z,2.70
2018-02-04T19:54:54.262Z,2.70
2018-02-04T19:57:22.457Z,2.70
2018-02-04T19:59:49.881Z,2.60
2018-02-04T20:02:17.337Z,2.60
2018-02-04T20:04:44.871Z,2.70
2018-02-04T20:07:12.350Z,2.70
2018-02-04T20:09:39.772Z,2.60
2018-02-04T20:12:07.214Z,2.60
2018-02-04T20:14:34.654Z,2.60
2018-02-04T20:17:02.109Z,2.70
2018-02-04T20:19:29.597Z,2.60
2018-02-04T20:21:57.068Z,2.70
2018-02-04T20:24:24.512Z,2.70
2018-02-04T20:26:52.737Z,2.70
2018-02-04T20:29:21.053Z,2.70
2018-02-04T20:31:48.473Z,2.70
2018-02-04T20:34:28.579Z,2.70
2018-02-04T20:36:56.006Z,2.70
2018-02-04T20:39:23.485Z,2.70
2018-02-04T20:41:51.059Z,2.70
2018-02-04T20:44:18.609Z,2.80
2018-02-04T20:46:46.058Z,2.70
2018-02-04T20:49:13.676Z,2.70
2018-02-04T20:51:41.885Z,2.60
2018-02-04T20:54:09.321Z,2.60
2018-02-04T20:56:36.758Z,2.60
2018-02-04T20:59:04.984Z,2.60
2018-02-04T21:01:32.549Z,2.50
2018-02-04T21:04:00.043Z,2.50
2018-02-04T21:06:27.438Z,2.50
2018-02-04T21:08:54.922Z,2.50
2018-02-04T21:11:22.477Z,2.40
2018-02-04T21:13:49.934Z,2.40
2018-02-04T21:16:17.355Z,2.40
2018-02-04T21:18:44.838Z,2.40
2018-02-04T21:21:12.286Z,2.40
2018-02-04T21:23:39.735Z,2.30
2018-02-04T21:26:07.204Z,2.30
2018-02-04T21:28:34.665Z,2.20
2018-02-04T21:31:02.118Z,2.20
2018-02-04T21:33:29.561Z,2.20
2018-02-04T21:35:57.006Z,2.20
2018-02-04T21:38:24.481Z,2.20
2018-02-04T21:40:52.006Z,2.20
2018-02-04T21:43:19.511Z,2.20
2018-02-04T21:45:46.954Z,2.10
2018-02-04T21:48:14.428Z,2.10
2018-02-04T21:50:41.884Z,2.10
2018-02-04T21:53:09.318Z,2.10
2018-02-04T21:55:36.763Z,2.10
2018-02-04T21:58:04.193Z,2.10
2018-02-04T22:00:32.414Z,2.00
2018-02-04T22:02:59.853Z,1.90
2018-02-04T22:05:27.426Z,1.90
2018-02-04T22:07:54.886Z,1.80
2018-02-04T22:10:22.357Z,1.90
2018-02-04T22:12:49.773Z,1.90
2018-02-04T22:15:17.212Z,1.80
2018-02-04T22:17:44.629Z,1.80
2018-02-04T22:20:12.066Z,1.80
2018-02-04T22:22:39.486Z,1.80
2018-02-04T22:25:06.918Z,1.80
2018-02-04T22:27:34.341Z,1.80
2018-02-04T22:30:01.981Z,1.80
2018-02-04T22:32:29.413Z,1.80
2018-02-04T22:34:56.845Z,1.70
2018-02-04T22:37:25.168Z,1.70
2018-02-04T22:39:52.606Z,1.60
2018-02-04T22:42:20.026Z,1.70
2018-02-04T22:44:47.545Z,1.70
2018-02-04T22:47:15.002Z,1.60
2018-02-04T22:49:42.438Z,1.70
2018-02-04T22:52:09.875Z,1.70
2018-02-04T22:54:37.317Z,1.70
2018-02-04T22:57:04.757Z,1.70
2018-02-04T22:59:32.208Z,1.70
2018-02-04T23:01:59.645Z,1.70
2018-02-04T23:04:27.070Z,1.70
2018-02-04T23:06:54.502Z,1.60
2018-02-04T23:09:21.996Z,1.70
2018-02-04T23:11:49.443Z,1.70
2018-02-04T23:14:16.846Z,1.60
2018-02-04T23:16:44.373Z,1.60
2018-02-04T23:19:11.804Z,1.60
2018-02-04T23:21:39.229Z,1.60
2018-02-04T23:24:07.421Z,1.60
2018-02-04T23:26:34.853Z,1.50
2018-02-04T23:29:02.326Z,1.60
2018-02-04T23:31:30.542Z,1.60
2018-02-04T23:33:57.997Z,1.50
2018-02-04T23:36:25.425Z,1.60
2018-02-04T23:38:52.850Z,1.70
2018-02-04T23:41:20.366Z,1.70
2018-02-04T23:43:47.798Z,1.70
2018-02-04T23:46:15.278Z,1.80
2018-02-04T23:48:42.739Z,1.80
2018-02-04T23:51:10.197Z,1.80
2018-02-04T23:53:37.670Z,1.80
2018-02-04T23:56:05.114Z,1.80
2018-02-04T23:58:32.553Z,1.80
